sensor_id;sensor_type;location;lat;lon;timestamp;pressure;altitude;pressure_sealevel;temperature;humidity
9249;BME280;4660;41.768;26.198;2022-12-15T00:02:20;100372.94;;;7.23;100.00
9249;BME280;4660;41.768;26.198;2022-12-15T00:05:04;100366.50;;;7.14;100.00
9249;BME280;4660;41.768;26.198;2022-12-15T00:07:48;100382.31;;;7.17;100.00
9249;BME280;4660;41.768;26.198;2022-12-15T00:10:32;100379.34;;;7.31;100.00
9249;BME280;4660;41.768;26.198;2022-12-15T00:13:16;100379.03;;;7.13;100.00
9249;BME280;4660;41.768;26.198;2022-12-15T00:16:00;100360.84;;;7.07;100.00
9249;BME280;4660;41.768;26.198;2022-12-15T00:18:45;100341.88;;;6.99;100.00
9249;BME280;4660;41.768;26.198;2022-12-15T00:21:29;100362.69;;;7.28;100.00
9249;BME280;4660;41.768;26.198;2022-12-15T00:24:14;100355.91;;;7.24;100.00
9249;BME280;4660;41.768;26.198;2022-12-15T00:26:58;100350.72;;;7.11;100.00
9249;BME280;4660;41.768;26.198;2022-12-15T00:29:42;100331.34;;;6.98;100.00
9249;BME280;4660;41.768;26.198;2022-12-15T00:32:26;100328.09;;;7.15;100.00
9249;BME280;4660;41.768;26.198;2022-12-15T00:35:10;100329.38;;;7.00;100.00
9249;BME280;4660;41.768;26.198;2022-12-15T00:37:54;100330.81;;;7.04;100.00
9249;BME280;4660;41.768;26.198;2022-12-15T00:40:39;100330.31;;;7.10;100.00
9249;BME280;4660;41.768;26.198;2022-12-15T00:43:04;100325.03;;;7.20;100.00
9249;BME280;4660;41.768;26.198;2022-12-15T00:45:30;100338.88;;;7.25;100.00
9249;BME280;4660;41.768;26.198;2022-12-15T00:48:14;100340.94;;;7.21;100.00
9249;BME280;4660;41.768;26.198;2022-12-15T00:50:43;100341.69;;;7.23;100.00
9249;BME280;4660;41.768;26.198;2022-12-15T00:53:21;100340.69;;;7.24;100.00
9249;BME280;4660;41.768;26.198;2022-12-15T00:56:06;100344.56;;;7.31;100.00
9249;BME280;4660;41.768;26.198;2022-12-15T00:58:51;100337.09;;;7.56;100.00
9249;BME280;4660;41.768;26.198;2022-12-15T01:01:36;100312.50;;;7.62;100.00
9249;BME280;4660;41.768;26.198;2022-12-15T01:04:20;100308.31;;;7.69;100.00
9249;BME280;4660;41.768;26.198;2022-12-15T01:07:04;100309.97;;;7.60;100.00
9249;BME280;4660;41.768;26.198;2022-12-15T01:09:48;100325.03;;;7.40;100.00
9249;BME280;4660;41.768;26.198;2022-12-15T01:12:32;100319.50;;;7.32;100.00
9249;BME280;4660;41.768;26.198;2022-12-15T01:15:17;100303.09;;;7.47;100.00
9249;BME280;4660;41.768;26.198;2022-12-15T01:18:01;100307.81;;;7.33;100.00
9249;BME280;4660;41.768;26.198;2022-12-15T01:21:03;100306.31;;;7.40;100.00
9249;BME280;4660;41.768;26.198;2022-12-15T01:23:30;100327.72;;;7.61;100.00
9249;BME280;4660;41.768;26.198;2022-12-15T01:25:56;100322.44;;;7.29;100.00
9249;BME280;4660;41.768;26.198;2022-12-15T01:28:22;100327.13;;;7.58;100.00
9249;BME280;4660;41.768;26.198;2022-12-15T01:30:49;100308.22;;;7.29;100.00
9249;BME280;4660;41.768;26.198;2022-12-15T01:33:15;100305.31;;;7.41;100.00
9249;BME280;4660;41.768;26.198;2022-12-15T01:35:41;100315.66;;;7.46;100.00
9249;BME280;4660;41.768;26.198;2022-12-15T01:38:07;100294.69;;;7.51;100.00
9249;BME280;4660;41.768;26.198;2022-12-15T01:40:34;100280.66;;;7.59;100.00
9249;BME280;4660;41.768;26.198;2022-12-15T01:43:13;100264.47;;;7.70;100.00
9249;BME280;4660;41.768;26.198;2022-12-15T01:48:14;100276.88;;;7.40;100.00
9249;BME280;4660;41.768;26.198;2022-12-15T01:50:46;100275.19;;;7.39;100.00
9249;BME280;4660;41.768;26.198;2022-12-15T01:53:14;100255.59;;;7.39;100.00
9249;BME280;4660;41.768;26.198;2022-12-15T01:55:43;100257.94;;;7.32;100.00
9249;BME280;4660;41.768;26.198;2022-12-15T01:58:12;100266.75;;;7.44;100.00
9249;BME280;4660;41.768;26.198;2022-12-15T02:00:40;100257.22;;;7.51;100.00
9249;BME280;4660;41.768;26.198;2022-12-15T02:03:06;100256.56;;;7.59;100.00
9249;BME280;4660;41.768;26.198;2022-12-15T02:05:33;100244.75;;;7.40;100.00
9249;BME280;4660;41.768;26.198;2022-12-15T02:08:00;100238.94;;;7.35;100.00
9249;BME280;4660;41.768;26.198;2022-12-15T02:18:55;100246.19;;;7.44;100.00
9249;BME280;4660;41.768;26.198;2022-12-15T02:32:56;100224.69;;;7.25;100.00
9249;BME280;4660;41.768;26.198;2022-12-15T02:35:32;100209.50;;;7.35;100.00
9249;BME280;4660;41.768;26.198;2022-12-15T02:38:00;100230.22;;;7.33;100.00
9249;BME280;4660;41.768;26.198;2022-12-15T02:40:26;100225.34;;;7.48;100.00
9249;BME280;4660;41.768;26.198;2022-12-15T02:42:54;100217.00;;;7.11;100.00
9249;BME280;4660;41.768;26.198;2022-12-15T02:45:32;100232.41;;;7.49;100.00
9249;BME280;4660;41.768;26.198;2022-12-15T02:53:40;100212.13;;;7.47;100.00
9249;BME280;4660;41.768;26.198;2022-12-15T02:59:28;100223.69;;;7.57;100.00
9249;BME280;4660;41.768;26.198;2022-12-15T03:01:45;100199.84;;;7.44;100.00
9249;BME280;4660;41.768;26.198;2022-12-15T03:04:14;100199.50;;;7.58;100.00
9249;BME280;4660;41.768;26.198;2022-12-15T03:06:41;100201.19;;;7.59;100.00
9249;BME280;4660;41.768;26.198;2022-12-15T03:09:06;100187.66;;;7.61;100.00
9249;BME280;4660;41.768;26.198;2022-12-15T03:11:32;100200.59;;;7.56;100.00
9249;BME280;4660;41.768;26.198;2022-12-15T03:13:58;100209.03;;;7.51;100.00
9249;BME280;4660;41.768;26.198;2022-12-15T03:16:24;100231.31;;;7.52;100.00
9249;BME280;4660;41.768;26.198;2022-12-15T03:18:50;100221.84;;;7.48;100.00
9249;BME280;4660;41.768;26.198;2022-12-15T03:21:16;100239.50;;;7.60;100.00
9249;BME280;4660;41.768;26.198;2022-12-15T03:23:42;100215.50;;;7.49;100.00
9249;BME280;4660;41.768;26.198;2022-12-15T03:26:07;100201.69;;;7.43;100.00
9249;BME280;4660;41.768;26.198;2022-12-15T03:28:33;100194.03;;;7.69;100.00
9249;BME280;4660;41.768;26.198;2022-12-15T03:30:59;100197.16;;;7.84;100.00
9249;BME280;4660;41.768;26.198;2022-12-15T03:33:24;100203.25;;;7.86;100.00
9249;BME280;4660;41.768;26.198;2022-12-15T03:35:50;100214.66;;;7.79;100.00
9249;BME280;4660;41.768;26.198;2022-12-15T03:38:16;100227.97;;;7.69;100.00
9249;BME280;4660;41.768;26.198;2022-12-15T03:40:42;100247.72;;;7.68;100.00
9249;BME280;4660;41.768;26.198;2022-12-15T03:43:07;100234.69;;;7.54;100.00
9249;BME280;4660;41.768;26.198;2022-12-15T03:45:33;100228.03;;;7.48;100.00
9249;BME280;4660;41.768;26.198;2022-12-15T03:47:59;100212.75;;;7.60;100.00
9249;BME280;4660;41.768;26.198;2022-12-15T03:50:26;100205.38;;;7.52;100.00
9249;BME280;4660;41.768;26.198;2022-12-15T03:53:00;100237.34;;;7.84;100.00
9249;BME280;4660;41.768;26.198;2022-12-15T03:55:26;100215.06;;;7.74;100.00
9249;BME280;4660;41.768;26.198;2022-12-15T03:57:56;100200.66;;;7.65;100.00
9249;BME280;4660;41.768;26.198;2022-12-15T04:00:22;100211.06;;;7.68;100.00
9249;BME280;4660;41.768;26.198;2022-12-15T04:02:49;100230.94;;;7.66;100.00
9249;BME280;4660;41.768;26.198;2022-12-15T04:05:24;100226.59;;;7.75;100.00
9249;BME280;4660;41.768;26.198;2022-12-15T04:07:51;100228.50;;;7.93;100.00
9249;BME280;4660;41.768;26.198;2022-12-15T04:10:17;100217.28;;;8.09;100.00
9249;BME280;4660;41.768;26.198;2022-12-15T04:12:42;100198.09;;;8.14;100.00
9249;BME280;4660;41.768;26.198;2022-12-15T04:15:09;100204.72;;;8.10;100.00
9249;BME280;4660;41.768;26.198;2022-12-15T04:17:35;100233.06;;;8.12;100.00
9249;BME280;4660;41.768;26.198;2022-12-15T04:20:03;100235.44;;;8.06;100.00
9249;BME280;4660;41.768;26.198;2022-12-15T04:22:42;100243.06;;;8.00;100.00
9249;BME280;4660;41.768;26.198;2022-12-15T04:25:12;100228.47;;;7.84;100.00
9249;BME280;4660;41.768;26.198;2022-12-15T04:27:57;100239.84;;;7.76;100.00
9249;BME280;4660;41.768;26.198;2022-12-15T04:30:45;100231.41;;;7.81;100.00
9249;BME280;4660;41.768;26.198;2022-12-15T04:33:31;100220.75;;;8.00;100.00
9249;BME280;4660;41.768;26.198;2022-12-15T04:36:15;100228.78;;;8.00;100.00
9249;BME280;4660;41.768;26.198;2022-12-15T04:38:59;100227.94;;;7.99;100.00
9249;BME280;4660;41.768;26.198;2022-12-15T04:41:43;100252.94;;;8.10;100.00
9249;BME280;4660;41.768;26.198;2022-12-15T04:44:28;100253.69;;;8.31;100.00
9249;BME280;4660;41.768;26.198;2022-12-15T04:47:13;100254.91;;;8.08;100.00
9249;BME280;4660;41.768;26.198;2022-12-15T04:49:57;100245.72;;;8.00;100.00
9249;BME280;4660;41.768;26.198;2022-12-15T04:52:41;100255.13;;;8.35;100.00
9249;BME280;4660;41.768;26.198;2022-12-15T04:55:25;100260.94;;;8.40;100.00
9249;BME280;4660;41.768;26.198;2022-12-15T04:58:09;100251.63;;;8.44;100.00
9249;BME280;4660;41.768;26.198;2022-12-15T05:00:56;100238.94;;;8.46;100.00
9249;BME280;4660;41.768;26.198;2022-12-15T05:03:41;100222.56;;;8.49;100.00
9249;BME280;4660;41.768;26.198;2022-12-15T05:06:25;100235.00;;;8.60;100.00
9249;BME280;4660;41.768;26.198;2022-12-15T05:09:09;100230.19;;;8.44;100.00
9249;BME280;4660;41.768;26.198;2022-12-15T05:11:54;100233.47;;;8.58;100.00
9249;BME280;4660;41.768;26.198;2022-12-15T05:14:38;100233.31;;;8.59;100.00
9249;BME280;4660;41.768;26.198;2022-12-15T05:17:22;100220.88;;;8.48;100.00
9249;BME280;4660;41.768;26.198;2022-12-15T05:20:07;100242.63;;;8.74;100.00
9249;BME280;4660;41.768;26.198;2022-12-15T05:22:55;100257.16;;;8.62;100.00
9249;BME280;4660;41.768;26.198;2022-12-15T05:25:40;100265.91;;;8.74;100.00
9249;BME280;4660;41.768;26.198;2022-12-15T05:28:24;100251.53;;;8.65;100.00
9249;BME280;4660;41.768;26.198;2022-12-15T05:31:08;100260.53;;;8.54;100.00
9249;BME280;4660;41.768;26.198;2022-12-15T05:33:54;100251.19;;;8.49;100.00
9249;BME280;4660;41.768;26.198;2022-12-15T05:36:20;100251.50;;;8.36;100.00
9249;BME280;4660;41.768;26.198;2022-12-15T05:38:50;100261.16;;;8.27;100.00
9249;BME280;4660;41.768;26.198;2022-12-15T05:41:20;100253.03;;;7.98;100.00
9249;BME280;4660;41.768;26.198;2022-12-15T05:43:46;100252.56;;;7.84;100.00
9249;BME280;4660;41.768;26.198;2022-12-15T05:46:12;100267.09;;;7.91;100.00
9249;BME280;4660;41.768;26.198;2022-12-15T05:48:39;100268.41;;;7.96;100.00
9249;BME280;4660;41.768;26.198;2022-12-15T05:51:06;100269.63;;;7.83;100.00
9249;BME280;4660;41.768;26.198;2022-12-15T05:53:33;100266.66;;;7.86;100.00
9249;BME280;4660;41.768;26.198;2022-12-15T05:56:03;100266.00;;;7.93;100.00
9249;BME280;4660;41.768;26.198;2022-12-15T05:58:29;100272.94;;;8.06;100.00
9249;BME280;4660;41.768;26.198;2022-12-15T06:01:05;100276.88;;;8.02;100.00
9249;BME280;4660;41.768;26.198;2022-12-15T06:03:31;100264.66;;;8.09;100.00
9249;BME280;4660;41.768;26.198;2022-12-15T06:05:57;100287.28;;;7.95;100.00
9249;BME280;4660;41.768;26.198;2022-12-15T06:08:26;100276.88;;;8.02;100.00
9249;BME280;4660;41.768;26.198;2022-12-15T06:10:53;100280.50;;;7.91;100.00
9249;BME280;4660;41.768;26.198;2022-12-15T06:13:19;100280.25;;;7.94;100.00
9249;BME280;4660;41.768;26.198;2022-12-15T06:15:55;100285.28;;;7.87;100.00
9249;BME280;4660;41.768;26.198;2022-12-15T06:18:22;100287.53;;;7.92;100.00
9249;BME280;4660;41.768;26.198;2022-12-15T06:20:48;100295.03;;;7.88;100.00
9249;BME280;4660;41.768;26.198;2022-12-15T06:23:14;100294.22;;;7.67;100.00
9249;BME280;4660;41.768;26.198;2022-12-15T06:25:40;100293.50;;;7.95;100.00
9249;BME280;4660;41.768;26.198;2022-12-15T06:28:05;100297.03;;;8.06;100.00
9249;BME280;4660;41.768;26.198;2022-12-15T06:30:31;100234.53;;;7.55;100.00
9249;BME280;4660;41.768;26.198;2022-12-15T06:32:57;100278.78;;;7.80;100.00
9249;BME280;4660;41.768;26.198;2022-12-15T06:35:22;100290.94;;;7.63;100.00
9249;BME280;4660;41.768;26.198;2022-12-15T06:37:48;100270.16;;;7.25;100.00
9249;BME280;4660;41.768;26.198;2022-12-15T06:40:13;100298.69;;;7.15;100.00
9249;BME280;4660;41.768;26.198;2022-12-15T06:42:39;100309.22;;;6.96;100.00
9249;BME280;4660;41.768;26.198;2022-12-15T06:45:06;100301.78;;;6.67;100.00
9249;BME280;4660;41.768;26.198;2022-12-15T06:47:32;100319.16;;;6.73;100.00
9249;BME280;4660;41.768;26.198;2022-12-15T06:49:58;100312.41;;;6.46;100.00
9249;BME280;4660;41.768;26.198;2022-12-15T06:52:23;100317.66;;;6.37;100.00
9249;BME280;4660;41.768;26.198;2022-12-15T06:54:49;100338.50;;;6.54;100.00
9249;BME280;4660;41.768;26.198;2022-12-15T06:57:14;100336.59;;;6.45;100.00
9249;BME280;4660;41.768;26.198;2022-12-15T06:59:40;100323.00;;;6.37;100.00
9249;BME280;4660;41.768;26.198;2022-12-15T07:02:15;100338.50;;;6.65;100.00
9249;BME280;4660;41.768;26.198;2022-12-15T07:04:42;100378.56;;;6.76;100.00
9249;BME280;4660;41.768;26.198;2022-12-15T07:07:10;100377.34;;;6.80;100.00
9249;BME280;4660;41.768;26.198;2022-12-15T07:09:36;100379.16;;;6.80;100.00
9249;BME280;4660;41.768;26.198;2022-12-15T07:12:01;100377.78;;;6.85;100.00
9249;BME280;4660;41.768;26.198;2022-12-15T07:14:27;100371.16;;;6.69;100.00
9249;BME280;4660;41.768;26.198;2022-12-15T07:16:52;100376.78;;;6.66;100.00
9249;BME280;4660;41.768;26.198;2022-12-15T07:19:18;100390.94;;;6.77;100.00
9249;BME280;4660;41.768;26.198;2022-12-15T07:21:44;100373.53;;;6.51;100.00
9249;BME280;4660;41.768;26.198;2022-12-15T07:24:10;100378.09;;;6.60;100.00
9249;BME280;4660;41.768;26.198;2022-12-15T07:26:37;100383.00;;;6.44;100.00
9249;BME280;4660;41.768;26.198;2022-12-15T07:29:03;100384.56;;;6.57;100.00
9249;BME280;4660;41.768;26.198;2022-12-15T07:31:29;100364.97;;;6.57;100.00
9249;BME280;4660;41.768;26.198;2022-12-15T07:33:59;100382.97;;;6.66;100.00
9249;BME280;4660;41.768;26.198;2022-12-15T07:36:25;100392.94;;;6.53;100.00
9249;BME280;4660;41.768;26.198;2022-12-15T07:38:59;100390.00;;;6.56;100.00
9249;BME280;4660;41.768;26.198;2022-12-15T07:41:25;100389.06;;;6.46;100.00
9249;BME280;4660;41.768;26.198;2022-12-15T07:43:51;100400.50;;;6.37;100.00
9249;BME280;4660;41.768;26.198;2022-12-15T07:46:17;100400.00;;;6.31;100.00
9249;BME280;4660;41.768;26.198;2022-12-15T07:48:44;100421.47;;;6.41;100.00
9249;BME280;4660;41.768;26.198;2022-12-15T07:51:10;100419.41;;;6.33;100.00
9249;BME280;4660;41.768;26.198;2022-12-15T07:53:36;100431.31;;;6.41;100.00
9249;BME280;4660;41.768;26.198;2022-12-15T07:56:05;100415.66;;;6.47;100.00
9249;BME280;4660;41.768;26.198;2022-12-15T07:58:31;100399.88;;;6.44;100.00
9249;BME280;4660;41.768;26.198;2022-12-15T08:01:01;100413.34;;;6.43;100.00
9249;BME280;4660;41.768;26.198;2022-12-15T08:03:28;100419.03;;;6.49;100.00
9249;BME280;4660;41.768;26.198;2022-12-15T08:05:54;100424.28;;;6.40;100.00
9249;BME280;4660;41.768;26.198;2022-12-15T08:08:28;100439.56;;;6.49;100.00
9249;BME280;4660;41.768;26.198;2022-12-15T08:10:57;100457.91;;;6.42;100.00
9249;BME280;4660;41.768;26.198;2022-12-15T08:13:23;100447.13;;;6.44;100.00
9249;BME280;4660;41.768;26.198;2022-12-15T08:15:52;100442.25;;;6.38;100.00
9249;BME280;4660;41.768;26.198;2022-12-15T08:18:19;100464.84;;;6.45;100.00
9249;BME280;4660;41.768;26.198;2022-12-15T08:20:46;100452.94;;;6.26;100.00
9249;BME280;4660;41.768;26.198;2022-12-15T08:23:16;100448.22;;;6.30;100.00
9249;BME280;4660;41.768;26.198;2022-12-15T08:25:44;100451.00;;;6.40;100.00
9249;BME280;4660;41.768;26.198;2022-12-15T08:28:23;100419.16;;;6.14;100.00
9249;BME280;4660;41.768;26.198;2022-12-15T08:30:50;100451.25;;;6.48;100.00
9249;BME280;4660;41.768;26.198;2022-12-15T08:33:36;100461.69;;;6.62;100.00
9249;BME280;4660;41.768;26.198;2022-12-15T08:36:21;100420.88;;;6.38;100.00
9249;BME280;4660;41.768;26.198;2022-12-15T08:38:48;100449.06;;;6.53;100.00
9249;BME280;4660;41.768;26.198;2022-12-15T08:41:19;100439.56;;;6.71;100.00
9249;BME280;4660;41.768;26.198;2022-12-15T08:43:49;100467.41;;;6.80;100.00
9249;BME280;4660;41.768;26.198;2022-12-15T08:46:36;100428.63;;;6.74;100.00
9249;BME280;4660;41.768;26.198;2022-12-15T08:49:03;100457.50;;;6.92;100.00
9249;BME280;4660;41.768;26.198;2022-12-15T08:51:36;100316.34;;;6.20;100.00
9249;BME280;4660;41.768;26.198;2022-12-15T08:54:03;100428.63;;;6.74;100.00
9249;BME280;4660;41.768;26.198;2022-12-15T08:56:34;100396.41;;;6.76;100.00
9249;BME280;4660;41.768;26.198;2022-12-15T08:59:02;100440.19;;;7.18;100.00
9249;BME280;4660;41.768;26.198;2022-12-15T09:01:30;100428.09;;;7.03;100.00
9249;BME280;4660;41.768;26.198;2022-12-15T09:03:57;100387.19;;;6.69;100.00
9249;BME280;4660;41.768;26.198;2022-12-15T09:06:26;100327.63;;;6.23;100.00
9249;BME280;4660;41.768;26.198;2022-12-15T09:08:55;100403.25;;;6.69;100.00
9249;BME280;4660;41.768;26.198;2022-12-15T09:11:29;100464.81;;;7.01;100.00
9249;BME280;4660;41.768;26.198;2022-12-15T09:14:05;100458.94;;;7.07;100.00
9249;BME280;4660;41.768;26.198;2022-12-15T09:16:51;100465.75;;;7.22;100.00
9249;BME280;4660;41.768;26.198;2022-12-15T09:19:17;100368.28;;;6.49;100.00
9249;BME280;4660;41.768;26.198;2022-12-15T09:21:44;100408.94;;;6.86;100.00
9249;BME280;4660;41.768;26.198;2022-12-15T09:24:13;100350.63;;;6.69;100.00
9249;BME280;4660;41.768;26.198;2022-12-15T09:26:44;100447.34;;;7.61;100.00
9249;BME280;4660;41.768;26.198;2022-12-15T09:29:12;100328.41;;;7.01;100.00
9249;BME280;4660;41.768;26.198;2022-12-15T09:31:39;100420.28;;;7.64;100.00
9249;BME280;4660;41.768;26.198;2022-12-15T09:34:05;100395.94;;;7.46;100.00
9249;BME280;4660;41.768;26.198;2022-12-15T09:36:33;100321.63;;;6.97;100.00
9249;BME280;4660;41.768;26.198;2022-12-15T09:39:00;100333.00;;;7.10;100.00
9249;BME280;4660;41.768;26.198;2022-12-15T09:41:34;100318.44;;;7.03;100.00
9249;BME280;4660;41.768;26.198;2022-12-15T09:44:06;100301.06;;;6.97;100.00
9249;BME280;4660;41.768;26.198;2022-12-15T09:47:03;100410.50;;;7.53;100.00
9249;BME280;4660;41.768;26.198;2022-12-15T09:52:12;100426.81;;;7.92;100.00
9249;BME280;4660;41.768;26.198;2022-12-15T09:54:39;100442.88;;;8.13;100.00
9249;BME280;4660;41.768;26.198;2022-12-15T09:57:39;100468.31;;;7.97;100.00
9249;BME280;4660;41.768;26.198;2022-12-15T10:00:18;100390.66;;;7.56;100.00
9249;BME280;4660;41.768;26.198;2022-12-15T10:08:19;100383.63;;;8.06;100.00
9249;BME280;4660;41.768;26.198;2022-12-15T10:11:13;100318.66;;;7.83;100.00
9249;BME280;4660;41.768;26.198;2022-12-15T10:14:12;100301.06;;;7.60;100.00
9249;BME280;4660;41.768;26.198;2022-12-15T10:16:52;100329.84;;;7.88;100.00
9249;BME280;4660;41.768;26.198;2022-12-15T10:19:26;100426.22;;;8.61;100.00
9249;BME280;4660;41.768;26.198;2022-12-15T10:21:56;100438.63;;;8.62;100.00
9249;BME280;4660;41.768;26.198;2022-12-15T10:24:22;100436.56;;;8.75;100.00
9249;BME280;4660;41.768;26.198;2022-12-15T10:29:45;100445.94;;;8.90;100.00
9249;BME280;4660;41.768;26.198;2022-12-15T10:32:21;100412.56;;;8.73;100.00
9249;BME280;4660;41.768;26.198;2022-12-15T10:34:48;100444.69;;;9.14;100.00
9249;BME280;4660;41.768;26.198;2022-12-15T10:37:19;100446.13;;;9.27;100.00
9249;BME280;4660;41.768;26.198;2022-12-15T10:39:47;100416.03;;;9.04;100.00
9249;BME280;4660;41.768;26.198;2022-12-15T10:42:23;100457.72;;;9.28;100.00
9249;BME280;4660;41.768;26.198;2022-12-15T10:45:43;100438.53;;;9.23;100.00
9249;BME280;4660;41.768;26.198;2022-12-15T10:48:19;100445.97;;;9.19;100.00
9249;BME280;4660;41.768;26.198;2022-12-15T10:50:47;100453.22;;;9.38;100.00
9249;BME280;4660;41.768;26.198;2022-12-15T10:54:03;100467.75;;;9.35;100.00
9249;BME280;4660;41.768;26.198;2022-12-15T10:56:58;100463.09;;;9.18;100.00
9249;BME280;4660;41.768;26.198;2022-12-15T10:59:28;100447.81;;;9.09;100.00
9249;BME280;4660;41.768;26.198;2022-12-15T11:07:39;100450.09;;;9.43;100.00
9249;BME280;4660;41.768;26.198;2022-12-15T11:10:20;100443.75;;;9.44;100.00
9249;BME280;4660;41.768;26.198;2022-12-15T11:13:12;100455.06;;;9.47;100.00
9249;BME280;4660;41.768;26.198;2022-12-15T11:15:46;100469.78;;;9.43;100.00
9249;BME280;4660;41.768;26.198;2022-12-15T11:21:00;100475.69;;;9.37;100.00
9249;BME280;4660;41.768;26.198;2022-12-15T11:23:42;100469.03;;;9.31;100.00
9249;BME280;4660;41.768;26.198;2022-12-15T11:26:34;100468.88;;;9.23;100.00
9249;BME280;4660;41.768;26.198;2022-12-15T11:31:45;100461.81;;;9.42;100.00
9249;BME280;4660;41.768;26.198;2022-12-15T11:34:25;100470.72;;;9.42;100.00
9249;BME280;4660;41.768;26.198;2022-12-15T11:48:02;100506.50;;;9.91;100.00
9249;BME280;4660;41.768;26.198;2022-12-15T11:53:21;100501.97;;;9.91;100.00
9249;BME280;4660;41.768;26.198;2022-12-15T12:04:58;100516.81;;;10.05;100.00
9249;BME280;4660;41.768;26.198;2022-12-15T12:07:51;100518.81;;;10.03;100.00
9249;BME280;4660;41.768;26.198;2022-12-15T12:18:33;100523.06;;;9.96;100.00
9249;BME280;4660;41.768;26.198;2022-12-15T12:21:11;100515.56;;;9.90;100.00
9249;BME280;4660;41.768;26.198;2022-12-15T12:23:52;100495.19;;;9.78;100.00
9249;BME280;4660;41.768;26.198;2022-12-15T12:26:42;100509.94;;;9.93;100.00
9249;BME280;4660;41.768;26.198;2022-12-15T12:29:34;100485.44;;;9.77;100.00
9249;BME280;4660;41.768;26.198;2022-12-15T12:32:09;100508.75;;;10.05;100.00
9249;BME280;4660;41.768;26.198;2022-12-15T12:35:20;100524.50;;;10.29;100.00
9249;BME280;4660;41.768;26.198;2022-12-15T12:38:00;100516.44;;;10.29;100.00
9249;BME280;4660;41.768;26.198;2022-12-15T12:43:08;100512.16;;;10.27;100.00
9249;BME280;4660;41.768;26.198;2022-12-15T12:45:44;100497.41;;;10.21;100.00
9249;BME280;4660;41.768;26.198;2022-12-15T12:48:39;100513.59;;;10.31;100.00
9249;BME280;4660;41.768;26.198;2022-12-15T12:51:22;100535.38;;;10.37;100.00
9249;BME280;4660;41.768;26.198;2022-12-15T12:53:53;100433.69;;;9.84;100.00
9249;BME280;4660;41.768;26.198;2022-12-15T12:56:55;100416.91;;;9.53;100.00
9249;BME280;4660;41.768;26.198;2022-12-15T13:01:59;100546.09;;;10.18;100.00
9249;BME280;4660;41.768;26.198;2022-12-15T13:04:40;100431.03;;;9.36;100.00
9249;BME280;4660;41.768;26.198;2022-12-15T13:07:32;100558.84;;;10.16;100.00
9249;BME280;4660;41.768;26.198;2022-12-15T13:10:48;100437.25;;;9.46;100.00
9249;BME280;4660;41.768;26.198;2022-12-15T13:16:20;100522.38;;;9.94;100.00
9249;BME280;4660;41.768;26.198;2022-12-15T13:24:34;100588.44;;;10.16;100.00
9249;BME280;4660;41.768;26.198;2022-12-15T13:29:56;100585.19;;;10.32;100.00
9249;BME280;4660;41.768;26.198;2022-12-15T13:32:36;100585.75;;;10.26;100.00
9249;BME280;4660;41.768;26.198;2022-12-15T13:37:53;100602.47;;;10.29;100.00
9249;BME280;4660;41.768;26.198;2022-12-15T13:40:26;100583.75;;;10.08;100.00
9249;BME280;4660;41.768;26.198;2022-12-15T13:45:50;100603.59;;;10.27;100.00
9249;BME280;4660;41.768;26.198;2022-12-15T13:51:25;100611.78;;;10.25;100.00
9249;BME280;4660;41.768;26.198;2022-12-15T13:59:21;100618.88;;;10.26;100.00
9249;BME280;4660;41.768;26.198;2022-12-15T14:01:51;100620.84;;;10.34;100.00
9249;BME280;4660;41.768;26.198;2022-12-15T14:04:19;100615.75;;;10.31;100.00
9249;BME280;4660;41.768;26.198;2022-12-15T14:06:51;100620.56;;;10.37;100.00
9249;BME280;4660;41.768;26.198;2022-12-15T14:09:24;100604.41;;;10.17;100.00
9249;BME280;4660;41.768;26.198;2022-12-15T14:11:52;100611.94;;;10.24;100.00
9249;BME280;4660;41.768;26.198;2022-12-15T14:14:21;100636.97;;;10.34;100.00
9249;BME280;4660;41.768;26.198;2022-12-15T14:16:59;100622.84;;;10.32;100.00
9249;BME280;4660;41.768;26.198;2022-12-15T14:19:25;100645.63;;;10.47;100.00
9249;BME280;4660;41.768;26.198;2022-12-15T14:21:56;100648.88;;;10.60;100.00
9249;BME280;4660;41.768;26.198;2022-12-15T14:24:40;100640.97;;;10.30;100.00
9249;BME280;4660;41.768;26.198;2022-12-15T14:27:07;100654.81;;;10.35;100.00
9249;BME280;4660;41.768;26.198;2022-12-15T14:29:32;100633.69;;;10.11;100.00
9249;BME280;4660;41.768;26.198;2022-12-15T14:31:58;100666.41;;;10.26;100.00
9249;BME280;4660;41.768;26.198;2022-12-15T14:34:37;100663.88;;;10.34;100.00
9249;BME280;4660;41.768;26.198;2022-12-15T14:37:07;100668.97;;;10.27;100.00
9249;BME280;4660;41.768;26.198;2022-12-15T14:39:36;100664.16;;;10.31;100.00
9249;BME280;4660;41.768;26.198;2022-12-15T14:42:18;100654.63;;;10.07;100.00
9249;BME280;4660;41.768;26.198;2022-12-15T14:44:48;100662.13;;;10.13;100.00
9249;BME280;4660;41.768;26.198;2022-12-15T14:47:26;100669.03;;;10.06;100.00
9249;BME280;4660;41.768;26.198;2022-12-15T14:50:00;100613.44;;;9.87;100.00
9249;BME280;4660;41.768;26.198;2022-12-15T14:52:40;100583.16;;;9.76;100.00
9249;BME280;4660;41.768;26.198;2022-12-15T14:55:34;100661.56;;;10.19;100.00
9249;BME280;4660;41.768;26.198;2022-12-15T14:58:40;100625.84;;;9.69;100.00
9249;BME280;4660;41.768;26.198;2022-12-15T15:01:28;100678.63;;;9.80;100.00
9249;BME280;4660;41.768;26.198;2022-12-15T15:04:04;100703.69;;;10.00;100.00
9249;BME280;4660;41.768;26.198;2022-12-15T15:06:56;100699.50;;;10.16;100.00
9249;BME280;4660;41.768;26.198;2022-12-15T15:09:29;100586.50;;;9.49;100.00
9249;BME280;4660;41.768;26.198;2022-12-15T15:12:07;100592.00;;;9.47;100.00
9249;BME280;4660;41.768;26.198;2022-12-15T15:14:59;100638.56;;;9.67;100.00
9249;BME280;4660;41.768;26.198;2022-12-15T15:17:56;100645.78;;;9.67;100.00
9249;BME280;4660;41.768;26.198;2022-12-15T15:20:37;100644.03;;;9.56;100.00
9249;BME280;4660;41.768;26.198;2022-12-15T15:23:18;100627.03;;;9.36;100.00
9249;BME280;4660;41.768;26.198;2022-12-15T15:26:06;100722.53;;;9.69;100.00
9249;BME280;4660;41.768;26.198;2022-12-15T15:28:41;100729.59;;;9.60;100.00
9249;BME280;4660;41.768;26.198;2022-12-15T15:31:28;100731.31;;;9.71;100.00
9249;BME280;4660;41.768;26.198;2022-12-15T15:33:56;100730.22;;;9.74;100.00